Terminal Aerodrome Forecast
Issued by NWS Cleveland, OH

Home | Current Version | Previous Version | Text Only | Print | Product List | Glossary On
Versions: 1 2 3 4 5 6 7 8 9 10 11 12 13
000
FTUS41 KCLE 011720
TAFYNG
TAF
KYNG 011720Z 0118/0218 29009KT P6SM SCT050 BKN080
     FM012200 28007KT P6SM SCT050
     FM020100 21003KT P6SM SKC
     FM021500 23010KT P6SM SCT250=

USA.gov is the U.S. government's official web portal to all federal, state and local government web resources and services.